createdAt,value
2023-03-26T00:01:46.506Z,42.80
2023-03-26T00:04:14.483Z,44.00
2023-03-26T00:06:42.029Z,51.63
2023-03-26T00:09:13.258Z,42.15
2023-03-26T00:11:41.408Z,50.13
2023-03-26T00:14:13.650Z,37.80
2023-03-26T00:16:42.670Z,57.28
2023-03-26T00:19:11.445Z,42.88
2023-03-26T00:21:39.023Z,51.95
2023-03-26T00:24:14.886Z,49.67
2023-03-26T00:26:43.586Z,46.45
2023-03-26T00:29:12.036Z,41.92
2023-03-26T00:31:41.088Z,55.92
2023-03-26T00:34:10.441Z,43.03
2023-03-26T00:36:38.460Z,54.25
2023-03-26T00:39:06.409Z,34.35
2023-03-26T00:41:37.304Z,36.53
2023-03-26T00:44:05.557Z,57.20
2023-03-26T00:46:33.364Z,41.88
2023-03-26T00:49:03.680Z,41.75
2023-03-26T00:51:33.493Z,42.83
2023-03-26T00:54:01.504Z,53.60
2023-03-26T00:56:29.196Z,56.13
2023-03-26T00:58:57.771Z,49.20
2023-03-26T01:01:28.794Z,44.53
2023-03-26T01:04:08.769Z,40.72
2023-03-26T01:06:41.889Z,42.13
2023-03-26T01:09:17.175Z,47.90
2023-03-26T01:11:45.852Z,38.40
2023-03-26T01:14:18.350Z,46.28
2023-03-26T01:16:55.075Z,59.65
2023-03-26T01:19:50.946Z,45.60
2023-03-26T01:22:24.737Z,48.55
2023-03-26T01:24:53.882Z,49.15
2023-03-26T01:27:34.135Z,41.25
2023-03-26T01:30:07.531Z,41.10
2023-03-26T01:32:59.179Z,41.88
2023-03-26T01:35:42.235Z,43.05
2023-03-26T01:38:40.987Z,43.50
2023-03-26T01:41:09.178Z,35.85
2023-03-26T01:44:18.662Z,40.22
2023-03-26T01:46:48.060Z,35.30
2023-03-26T01:49:17.947Z,34.10
2023-03-26T01:51:45.400Z,42.15
2023-03-26T01:54:16.966Z,41.75
2023-03-26T01:57:10.476Z,36.13
2023-03-26T01:59:43.836Z,37.55
2023-03-26T02:02:27.045Z,41.33
2023-03-26T02:04:54.514Z,37.65
2023-03-26T02:07:37.847Z,30.85
2023-03-26T02:10:13.215Z,35.15
2023-03-26T02:12:42.851Z,33.95
2023-03-26T02:15:11.812Z,41.17
2023-03-26T02:17:40.740Z,42.45
2023-03-26T02:20:10.553Z,40.75
2023-03-26T02:22:41.252Z,37.40
2023-03-26T02:25:13.499Z,36.65
2023-03-26T02:27:42.974Z,35.88
2023-03-26T02:30:16.830Z,23.88
2023-03-26T02:32:47.111Z,40.67
2023-03-26T02:35:14.870Z,19.75
2023-03-26T02:37:46.911Z,20.17
2023-03-26T02:40:21.074Z,21.92
2023-03-26T02:42:49.088Z,24.38
2023-03-26T02:45:16.651Z,26.88
2023-03-26T02:48:13.427Z,36.65
2023-03-26T02:54:01.178Z,22.67
2023-03-26T02:56:37.504Z,31.17
2023-03-26T02:59:23.544Z,17.35
2023-03-26T03:02:13.350Z,21.05
2023-03-26T03:04:41.271Z,27.05
2023-03-26T03:07:08.936Z,20.70
2023-03-26T03:09:36.976Z,24.83
2023-03-26T03:12:30.988Z,20.55
2023-03-26T03:14:58.644Z,20.02
2023-03-26T03:17:26.684Z,22.00
2023-03-26T03:19:54.176Z,21.95
2023-03-26T03:22:21.920Z,20.50
2023-03-26T03:24:57.701Z,14.85
2023-03-26T03:27:26.148Z,14.55
2023-03-26T03:30:09.087Z,18.75
2023-03-26T03:32:45.843Z,18.05
2023-03-26T03:35:15.865Z,14.07
2023-03-26T03:37:48.094Z,15.70
2023-03-26T03:40:15.608Z,14.18
2023-03-26T03:42:43.623Z,20.15
2023-03-26T03:45:13.712Z,17.80
2023-03-26T03:47:47.043Z,15.23
2023-03-26T03:50:18.096Z,13.35
2023-03-26T03:53:05.713Z,13.43
2023-03-26T03:55:38.170Z,10.82
2023-03-26T04:00:33.513Z,13.95
2023-03-26T04:03:34.144Z,11.00
2023-03-26T04:06:07.414Z,8.90
2023-03-26T04:08:35.572Z,9.88
2023-03-26T04:11:06.498Z,10.27
2023-03-26T04:13:53.904Z,13.77
2023-03-26T04:16:40.033Z,5.90
2023-03-26T04:19:08.525Z,9.60
2023-03-26T04:21:37.861Z,6.60
2023-03-26T04:24:07.250Z,9.20
2023-03-26T04:26:53.308Z,6.15
2023-03-26T04:29:27.838Z,6.25
2023-03-26T04:32:06.425Z,4.82
2023-03-26T04:34:34.722Z,2.53
2023-03-26T04:37:22.668Z,4.18
2023-03-26T04:40:02.642Z,5.35
2023-03-26T04:42:41.755Z,3.92
2023-03-26T04:48:00.064Z,4.47
2023-03-26T04:50:27.765Z,4.05
2023-03-26T04:52:57.323Z,4.18
2023-03-26T04:56:32.892Z,8.25
2023-03-26T04:59:34.418Z,4.28
2023-03-26T05:02:06.171Z,4.30
2023-03-26T05:04:45.927Z,4.03
2023-03-26T05:09:49.809Z,5.63
2023-03-26T05:12:23.806Z,3.97
2023-03-26T05:14:56.951Z,4.97
2023-03-26T05:17:51.568Z,6.25
2023-03-26T05:20:32.511Z,6.00
2023-03-26T05:23:00.365Z,7.20
2023-03-26T05:25:34.870Z,7.90
2023-03-26T05:28:04.123Z,7.00
2023-03-26T05:30:47.477Z,5.32
2023-03-26T05:33:16.360Z,4.97
2023-03-26T05:36:01.518Z,3.92
2023-03-26T05:38:31.902Z,3.13
2023-03-26T05:41:02.676Z,6.00
2023-03-26T05:43:31.297Z,2.47
2023-03-26T05:46:24.881Z,3.90
2023-03-26T05:48:53.984Z,5.20
2023-03-26T05:51:23.498Z,5.65
2023-03-26T05:54:01.038Z,4.50
2023-03-26T05:56:47.325Z,9.93
2023-03-26T05:59:53.037Z,1.98
2023-03-26T06:02:39.284Z,5.10
2023-03-26T06:05:23.842Z,4.30
2023-03-26T06:08:07.077Z,2.55
2023-03-26T06:10:39.376Z,4.35
2023-03-26T06:13:07.167Z,6.60
2023-03-26T06:15:38.383Z,5.35
2023-03-26T06:18:20.727Z,8.48
2023-03-26T06:21:20.879Z,3.33
2023-03-26T06:23:56.516Z,3.10
2023-03-26T06:26:52.281Z,3.67
2023-03-26T06:29:50.240Z,2.75
2023-03-26T06:32:37.971Z,4.35
2023-03-26T06:35:11.884Z,7.13
2023-03-26T06:37:39.429Z,3.33
2023-03-26T06:40:08.708Z,3.55
2023-03-26T06:43:08.301Z,5.68
2023-03-26T06:45:53.193Z,4.70
2023-03-26T06:48:39.842Z,5.22
2023-03-26T06:51:21.912Z,5.07
2023-03-26T06:54:18.070Z,3.17
2023-03-26T06:57:08.404Z,1.95
2023-03-26T06:59:55.061Z,5.35
2023-03-26T07:02:41.261Z,2.10
2023-03-26T07:05:43.882Z,5.13
2023-03-26T07:08:31.683Z,3.20
2023-03-26T07:11:37.005Z,3.00
2023-03-26T07:14:33.208Z,6.28
2023-03-26T07:17:16.270Z,2.70
2023-03-26T07:19:58.144Z,4.22
2023-03-26T07:22:27.977Z,4.03
2023-03-26T07:25:08.416Z,4.47
2023-03-26T07:28:08.060Z,2.45
2023-03-26T07:31:20.716Z,3.22
2023-03-26T07:34:07.170Z,2.92
2023-03-26T07:36:57.250Z,4.30
2023-03-26T07:40:16.529Z,3.03
2023-03-26T07:43:19.770Z,2.95
2023-03-26T07:46:11.696Z,2.28
2023-03-26T07:48:51.915Z,2.13
2023-03-26T07:51:36.939Z,0.88
2023-03-26T07:54:27.556Z,1.88
2023-03-26T07:57:45.453Z,3.10
2023-03-26T08:00:54.728Z,2.53
2023-03-26T08:03:55.591Z,4.35
2023-03-26T08:06:50.711Z,4.13
2023-03-26T08:09:54.883Z,3.03
2023-03-26T08:13:16.679Z,4.75
2023-03-26T08:15:47.756Z,2.95
2023-03-26T08:20:50.366Z,3.08
2023-03-26T08:23:50.902Z,2.88
2023-03-26T08:26:32.136Z,2.30
2023-03-26T08:29:17.854Z,2.03
2023-03-26T08:31:47.903Z,3.15
2023-03-26T08:34:15.803Z,5.90
2023-03-26T08:36:43.625Z,3.65
2023-03-26T08:39:11.724Z,5.45
2023-03-26T08:41:49.837Z,5.43
2023-03-26T08:44:17.489Z,4.45
2023-03-26T08:46:57.200Z,2.67
2023-03-26T08:49:51.062Z,2.47
2023-03-26T08:53:12.660Z,2.00
2023-03-26T08:56:18.348Z,3.88
2023-03-26T08:59:37.970Z,4.07
2023-03-26T09:02:36.646Z,1.55
2023-03-26T09:05:37.361Z,3.17
2023-03-26T09:08:33.492Z,3.17
2023-03-26T09:11:30.485Z,1.50
2023-03-26T09:14:19.955Z,4.05
2023-03-26T09:17:09.929Z,3.63
2023-03-26T09:19:54.121Z,1.45
2023-03-26T09:22:27.062Z,2.35
2023-03-26T09:25:20.320Z,3.60
2023-03-26T09:27:53.720Z,2.60
2023-03-26T09:30:58.137Z,4.20
2023-03-26T09:33:44.159Z,2.58
2023-03-26T09:36:36.712Z,3.28
2023-03-26T09:39:22.414Z,2.10
2023-03-26T09:42:15.976Z,1.48
2023-03-26T09:44:49.218Z,2.22
2023-03-26T09:47:22.370Z,4.15
2023-03-26T09:50:29.552Z,3.72
2023-03-26T09:53:03.169Z,3.72
2023-03-26T09:55:40.364Z,2.65
2023-03-26T09:58:50.219Z,5.03
2023-03-26T10:01:46.709Z,2.05
2023-03-26T10:04:33.481Z,3.50
2023-03-26T10:07:31.466Z,3.05
2023-03-26T10:10:17.888Z,4.75
2023-03-26T10:12:56.021Z,6.38
2023-03-26T10:16:06.061Z,2.78
2023-03-26T10:18:55.920Z,6.47
2023-03-26T10:21:38.391Z,2.42
2023-03-26T10:24:18.079Z,1.98
2023-03-26T10:27:41.478Z,3.80
2023-03-26T10:30:39.142Z,2.58
2023-03-26T10:33:31.891Z,3.25
2023-03-26T10:36:14.390Z,6.50
2023-03-26T10:38:58.937Z,3.08
2023-03-26T10:41:41.375Z,4.00
2023-03-26T10:44:43.571Z,3.47
2023-03-26T10:47:20.040Z,4.88
2023-03-26T10:49:56.357Z,4.60
2023-03-26T10:52:29.606Z,2.13
2023-03-26T10:55:46.749Z,4.15
2023-03-26T10:58:48.338Z,6.18
2023-03-26T11:01:38.864Z,3.55
2023-03-26T11:04:18.180Z,3.50
2023-03-26T11:07:05.024Z,4.03
2023-03-26T11:10:04.487Z,3.83
2023-03-26T11:12:46.503Z,3.15
2023-03-26T11:15:43.091Z,3.55
2023-03-26T11:18:21.401Z,2.50
2023-03-26T11:21:26.187Z,2.22
2023-03-26T11:24:18.406Z,4.13
2023-03-26T11:26:52.935Z,3.92
2023-03-26T11:29:39.041Z,3.33
2023-03-26T11:32:22.448Z,3.63
2023-03-26T11:35:01.754Z,4.28
2023-03-26T11:37:42.219Z,4.88
2023-03-26T11:40:21.258Z,3.45
2023-03-26T11:42:52.074Z,3.67
2023-03-26T11:45:25.036Z,3.45
2023-03-26T11:47:58.565Z,2.45
2023-03-26T11:50:30.548Z,3.55
2023-03-26T11:53:03.140Z,3.83
2023-03-26T11:55:31.580Z,5.63
2023-03-26T11:58:00.149Z,1.80
2023-03-26T12:00:29.672Z,4.78
2023-03-26T12:02:59.158Z,3.15
2023-03-26T12:05:34.185Z,4.25
2023-03-26T12:08:17.353Z,4.20
2023-03-26T12:10:52.344Z,3.13
2023-03-26T12:13:43.572Z,3.20
2023-03-26T12:16:17.173Z,3.63
2023-03-26T12:18:47.598Z,2.67
2023-03-26T12:21:18.700Z,2.00
2023-03-26T12:26:46.272Z,3.63
2023-03-26T12:29:17.126Z,2.72
2023-03-26T12:32:03.134Z,1.05
2023-03-26T12:34:36.224Z,2.13
2023-03-26T12:37:05.922Z,1.05
2023-03-26T12:40:09.945Z,2.13
2023-03-26T12:44:47.212Z,2.05
2023-03-26T12:45:16.865Z,2.30
2023-03-26T12:48:00.393Z,3.10
2023-03-26T12:50:59.259Z,3.00
2023-03-26T12:53:35.425Z,5.28
2023-03-26T12:56:21.690Z,7.22
2023-03-26T12:59:09.372Z,8.82
2023-03-26T13:02:07.074Z,8.38
2023-03-26T13:04:37.648Z,10.55
2023-03-26T13:07:52.820Z,9.02
2023-03-26T13:10:35.175Z,11.95
2023-03-26T13:13:17.123Z,16.60
2023-03-26T13:15:52.628Z,14.65
2023-03-26T13:18:37.656Z,18.25
2023-03-26T13:21:13.042Z,19.92
2023-03-26T13:23:53.886Z,13.10
2023-03-26T13:26:38.883Z,14.95
2023-03-26T13:29:33.096Z,14.75
2023-03-26T13:32:41.024Z,23.88
2023-03-26T13:35:12.859Z,23.05
2023-03-26T13:37:52.752Z,21.30
2023-03-26T13:40:41.812Z,21.73
2023-03-26T13:43:14.961Z,27.05
2023-03-26T13:45:57.724Z,25.85
2023-03-26T13:48:41.976Z,29.40
2023-03-26T13:51:26.394Z,22.98
2023-03-26T13:54:13.576Z,22.33
2023-03-26T13:56:50.831Z,25.90
2023-03-26T13:59:30.965Z,22.67
2023-03-26T14:02:07.846Z,28.15
2023-03-26T14:04:49.527Z,27.00
2023-03-26T14:07:23.684Z,26.90
2023-03-26T14:09:56.918Z,23.35
2023-03-26T14:12:52.510Z,21.55
2023-03-26T14:15:29.479Z,18.60
2023-03-26T14:18:18.742Z,19.15
2023-03-26T14:21:07.042Z,28.52
2023-03-26T14:23:40.372Z,28.38
2023-03-26T14:26:37.880Z,22.35
2023-03-26T14:29:18.666Z,24.83
2023-03-26T14:31:57.937Z,24.70
2023-03-26T14:34:47.027Z,26.80
2023-03-26T14:37:27.779Z,25.55
2023-03-26T14:40:15.183Z,24.40
2023-03-26T14:43:04.267Z,19.38
2023-03-26T14:45:46.907Z,21.27
2023-03-26T14:48:48.048Z,26.05
2023-03-26T14:51:21.213Z,16.70
2023-03-26T14:53:56.993Z,21.90
2023-03-26T14:56:24.720Z,17.23
2023-03-26T14:59:23.395Z,21.75
2023-03-26T15:02:25.089Z,21.33
2023-03-26T15:04:55.484Z,20.23
2023-03-26T15:07:44.541Z,21.05
2023-03-26T15:10:42.288Z,16.10
2023-03-26T15:13:28.534Z,15.45
2023-03-26T15:15:56.104Z,20.40
2023-03-26T15:18:43.148Z,14.20
2023-03-26T15:21:38.233Z,19.13
2023-03-26T15:24:21.306Z,15.75
2023-03-26T15:27:26.828Z,16.83
2023-03-26T15:30:38.967Z,15.50
2023-03-26T15:33:44.960Z,23.48
2023-03-26T15:36:21.575Z,20.27
2023-03-26T15:39:20.485Z,18.58
2023-03-26T15:42:00.706Z,25.95
2023-03-26T15:44:50.911Z,21.98
2023-03-26T15:47:37.305Z,16.85
2023-03-26T15:50:08.161Z,10.93
2023-03-26T15:53:00.542Z,11.82
2023-03-26T15:55:31.356Z,15.27
2023-03-26T16:00:35.863Z,12.10
2023-03-26T16:03:31.393Z,10.00
2023-03-26T16:06:20.624Z,10.18
2023-03-26T16:09:27.880Z,15.63
2023-03-26T16:11:58.740Z,9.57
2023-03-26T16:14:43.899Z,20.23
2023-03-26T16:17:20.700Z,13.63
2023-03-26T16:19:55.397Z,13.02
2023-03-26T16:23:03.567Z,13.55
2023-03-26T16:25:34.734Z,17.15
2023-03-26T16:28:21.418Z,10.45
2023-03-26T16:31:23.545Z,17.33
2023-03-26T16:34:09.020Z,18.50
2023-03-26T16:36:38.934Z,16.80
2023-03-26T16:39:07.261Z,19.23
2023-03-26T16:41:46.918Z,23.40
2023-03-26T16:44:39.080Z,20.10
2023-03-26T16:47:28.274Z,18.23
2023-03-26T16:50:12.149Z,18.83
2023-03-26T16:52:52.034Z,15.05
2023-03-26T16:55:42.735Z,19.63
2023-03-26T16:59:01.836Z,13.32
2023-03-26T17:01:54.734Z,14.07
2023-03-26T17:04:30.477Z,15.93
2023-03-26T17:07:13.747Z,12.40
2023-03-26T17:10:31.837Z,13.23
2023-03-26T17:13:07.337Z,11.02
2023-03-26T17:15:48.406Z,9.77
2023-03-26T17:18:41.011Z,14.05
2023-03-26T17:21:11.566Z,7.43
2023-03-26T17:24:00.897Z,11.13
2023-03-26T17:26:46.507Z,9.32
2023-03-26T17:29:44.939Z,11.68
2023-03-26T17:32:15.086Z,12.30
2023-03-26T17:34:55.907Z,8.00
2023-03-26T17:37:23.888Z,13.80
2023-03-26T17:39:51.528Z,10.05
2023-03-26T17:42:35.585Z,11.32
2023-03-26T17:45:11.093Z,9.20
2023-03-26T17:47:41.361Z,7.72
2023-03-26T17:50:17.941Z,8.35
2023-03-26T17:52:48.493Z,11.35
2023-03-26T17:55:21.113Z,10.95
2023-03-26T17:57:53.190Z,7.45
2023-03-26T18:00:28.756Z,11.45
2023-03-26T18:03:04.705Z,10.45
2023-03-26T18:05:34.644Z,6.90
2023-03-26T18:08:13.301Z,9.95
2023-03-26T18:11:10.346Z,5.03
2023-03-26T18:14:07.479Z,7.35
2023-03-26T18:16:38.117Z,7.88
2023-03-26T18:19:23.745Z,8.00
2023-03-26T18:22:05.689Z,7.50
2023-03-26T18:24:38.268Z,7.03
2023-03-26T18:27:12.301Z,11.50
2023-03-26T18:29:45.871Z,11.38
2023-03-26T18:32:13.408Z,5.80
2023-03-26T18:34:49.969Z,4.43
2023-03-26T18:37:24.086Z,8.13
2023-03-26T18:40:00.726Z,5.20
2023-03-26T18:42:31.725Z,10.02
2023-03-26T18:47:31.998Z,9.43
2023-03-26T18:50:00.270Z,10.02
2023-03-26T18:52:29.541Z,7.38
2023-03-26T18:54:59.339Z,12.68
2023-03-26T18:57:28.947Z,8.00
2023-03-26T19:00:13.559Z,9.18
2023-03-26T19:02:41.305Z,9.05
2023-03-26T19:05:14.368Z,7.40
2023-03-26T19:07:42.849Z,8.73
2023-03-26T19:10:22.083Z,5.65
2023-03-26T19:13:01.522Z,4.65
2023-03-26T19:15:32.450Z,12.88
2023-03-26T19:18:07.374Z,12.88
2023-03-26T19:20:44.524Z,15.50
2023-03-26T19:23:16.152Z,10.10
2023-03-26T19:26:04.133Z,11.10
2023-03-26T19:28:37.744Z,5.80
2023-03-26T19:31:19.314Z,7.97
2023-03-26T19:33:55.060Z,7.68
2023-03-26T19:36:30.323Z,11.30
2023-03-26T19:39:04.706Z,6.70
2023-03-26T19:41:36.605Z,10.10
2023-03-26T19:44:24.810Z,7.35
2023-03-26T19:47:50.028Z,13.77
2023-03-26T19:49:56.619Z,17.13
2023-03-26T19:52:32.426Z,14.40
2023-03-26T19:55:21.287Z,10.40
2023-03-26T19:57:49.273Z,9.77
2023-03-26T20:00:17.020Z,6.97
2023-03-26T20:02:46.451Z,18.70
2023-03-26T20:05:25.373Z,7.18
2023-03-26T20:07:56.159Z,15.32
2023-03-26T20:10:24.382Z,9.18
2023-03-26T20:12:52.312Z,8.32
2023-03-26T20:15:25.828Z,8.77
2023-03-26T20:17:54.467Z,7.68
2023-03-26T20:20:24.920Z,14.88
2023-03-26T20:22:54.200Z,13.75
2023-03-26T20:25:31.325Z,10.43
2023-03-26T20:27:59.315Z,6.88
2023-03-26T20:30:37.371Z,10.10
2023-03-26T20:33:13.433Z,10.60
2023-03-26T20:35:41.389Z,10.07
2023-03-26T20:38:10.316Z,12.13
2023-03-26T20:40:38.694Z,11.68
2023-03-26T20:43:14.398Z,8.93
2023-03-26T20:45:42.283Z,9.13
2023-03-26T20:48:12.384Z,12.18
2023-03-26T20:50:50.507Z,9.35
2023-03-26T20:53:20.303Z,12.98
2023-03-26T20:55:48.788Z,10.05
2023-03-26T20:58:30.784Z,11.10
2023-03-26T21:01:01.254Z,9.75
2023-03-26T21:03:29.758Z,9.63
2023-03-26T21:06:03.775Z,9.63
2023-03-26T21:08:34.238Z,14.00
2023-03-26T21:11:26.611Z,13.93
2023-03-26T21:14:00.181Z,9.27
2023-03-26T21:16:28.267Z,15.05
2023-03-26T21:18:56.596Z,10.85
2023-03-26T21:21:47.549Z,11.32
2023-03-26T21:24:34.748Z,6.03
2023-03-26T21:27:25.260Z,10.52
2023-03-26T21:29:54.822Z,15.82
2023-03-26T21:32:23.184Z,10.27
2023-03-26T21:34:58.577Z,7.22
2023-03-26T21:37:27.515Z,12.68
2023-03-26T21:39:55.291Z,9.60
2023-03-26T21:42:26.759Z,10.73
2023-03-26T21:44:55.986Z,10.23
2023-03-26T21:47:24.102Z,10.10
2023-03-26T21:49:52.342Z,11.50
2023-03-26T21:52:22.564Z,10.85
2023-03-26T21:54:51.397Z,9.68
2023-03-26T21:57:55.740Z,11.20
2023-03-26T22:00:33.470Z,9.50
2023-03-26T22:03:44.158Z,10.95
2023-03-26T22:06:16.055Z,12.15
2023-03-26T22:08:43.739Z,12.50
2023-03-26T22:11:12.247Z,9.57
2023-03-26T22:13:39.915Z,6.93
2023-03-26T22:16:09.450Z,11.45
2023-03-26T22:18:36.919Z,8.50
2023-03-26T22:21:05.908Z,11.48
2023-03-26T22:23:38.114Z,4.78
2023-03-26T22:26:06.187Z,8.77
2023-03-26T22:28:33.661Z,9.35
2023-03-26T22:31:08.540Z,8.05
2023-03-26T22:33:36.283Z,11.15
2023-03-26T22:36:04.075Z,8.82
2023-03-26T22:38:31.492Z,17.40
2023-03-26T22:40:59.104Z,12.02
2023-03-26T22:43:26.777Z,16.13
2023-03-26T22:45:55.093Z,5.90
2023-03-26T22:48:23.804Z,14.77
2023-03-26T22:51:09.117Z,8.52
2023-03-26T22:53:36.615Z,9.63
2023-03-26T22:56:04.403Z,17.40
2023-03-26T22:58:34.053Z,11.45
2023-03-26T23:01:11.170Z,9.88
2023-03-26T23:03:39.577Z,10.15
2023-03-26T23:06:09.738Z,10.43
2023-03-26T23:08:38.227Z,19.50
2023-03-26T23:11:17.050Z,12.30
2023-03-26T23:13:46.047Z,10.05
2023-03-26T23:16:15.176Z,13.43
2023-03-26T23:18:43.398Z,11.48
2023-03-26T23:21:19.529Z,14.23
2023-03-26T23:23:48.654Z,8.13
2023-03-26T23:26:16.677Z,8.65
2023-03-26T23:28:44.115Z,6.93
2023-03-26T23:31:12.648Z,10.55
2023-03-26T23:33:50.424Z,11.23
2023-03-26T23:36:20.456Z,8.80
2023-03-26T23:38:48.908Z,7.90
2023-03-26T23:41:19.680Z,12.88
2023-03-26T23:43:55.833Z,9.90
2023-03-26T23:46:25.660Z,12.50
2023-03-26T23:48:53.474Z,12.63
2023-03-26T23:51:21.727Z,9.02
2023-03-26T23:53:49.688Z,14.18
2023-03-26T23:56:17.752Z,5.55
2023-03-26T23:58:45.832Z,6.47
